Time;durP1;ratioP1;P1;durP2;ratioP2;P2;SDS_P1;SDS_P2;PMS_P1;PMS_P2;Temp;Humidity;BMP_temperature;BMP_pressure;BME280_temperature;BME280_humidity;BME280_pressure;Samples;Min_cycle;Max_cycle;Signal;HPM_P1;HPM_P2
2022/07/16 00:01:22;;;;;;;2.83;2.00;;;;;;;21.35;65.03;94570.56;5053073;28;20227;-61
2022/07/16 00:01:48;;;;;;;2.22;1.92;;;;;;;21.26;65.45;94558.84;5070897;28;20212;-61
2022/07/16 00:04:14;;;;;;;2.05;1.85;;;;;;;21.10;65.58;94566.16;5070994;28;20196;-60
2022/07/16 00:06:39;;;;;;;2.42;2.00;;;;;;;20.98;66.21;94563.34;5070740;28;20647;-60
2022/07/16 00:09:05;;;;;;;3.13;1.90;;;;;;;20.85;65.98;94563.28;5070839;28;20614;-60
2022/07/16 00:11:31;;;;;;;2.58;1.90;;;;;;;20.78;66.39;94565.06;5070652;28;20269;-61
2022/07/16 00:13:56;;;;;;;6.00;1.88;;;;;;;20.70;66.68;94557.50;5070826;28;20325;-62
2022/07/16 00:16:22;;;;;;;4.03;1.92;;;;;;;20.59;67.89;94540.75;5071014;28;20281;-62
2022/07/16 00:21:32;;;;;;;2.03;1.80;;;;;;;20.60;68.09;94551.88;5070935;28;20215;-61
2022/07/16 00:23:57;;;;;;;3.03;2.08;;;;;;;20.81;66.93;94569.84;5070723;28;20197;-62
2022/07/16 00:26:23;;;;;;;2.45;2.00;;;;;;;20.78;66.90;94567.66;5052400;28;20209;-61
2022/07/16 00:28:48;;;;;;;3.42;1.88;;;;;;;20.82;66.66;94566.28;5070645;28;20189;-60
2022/07/16 00:31:14;;;;;;;4.28;1.77;;;;;;;20.77;66.77;94568.63;5070479;28;20729;-61
2022/07/16 00:33:40;;;;;;;3.75;2.03;;;;;;;20.70;67.18;94562.66;5052586;28;20295;-62
2022/07/16 00:36:06;;;;;;;4.00;1.73;;;;;;;20.63;66.31;94569.56;5052433;28;20223;-61
2022/07/16 00:38:32;;;;;;;3.75;1.88;;;;;;;20.55;66.36;94562.00;5070323;28;20244;-61
2022/07/16 00:40:57;;;;;;;1.73;1.63;;;;;;;20.46;66.39;94566.50;5070064;28;20212;-63
2022/07/16 00:43:23;;;;;;;3.00;1.73;;;;;;;20.23;66.94;94566.03;5070386;28;20260;-61
2022/07/16 00:45:48;;;;;;;3.60;1.88;;;;;;;20.26;66.70;94568.19;5070093;28;20204;-59
2022/07/16 00:48:14;;;;;;;2.13;1.80;;;;;;;20.22;66.67;94573.97;5069568;28;20212;-61
2022/07/16 00:50:40;;;;;;;2.55;1.70;;;;;;;20.21;66.47;94580.91;5051978;28;20212;-61
2022/07/16 00:53:09;;;;;;;1.48;1.38;;;;;;;20.36;65.87;94593.69;5069912;28;20663;-60
2022/07/16 00:55:35;;;;;;;2.25;1.70;;;;;;;20.37;65.79;94584.94;5069982;28;20213;-61
2022/07/16 00:58:00;;;;;;;4.30;1.45;;;;;;;20.33;65.74;94588.91;5051929;28;20655;-60
2022/07/16 01:00:26;;;;;;;1.70;1.60;;;;;;;20.33;65.69;94583.75;5070012;28;20559;-61
2022/07/16 01:02:52;;;;;;;4.13;1.67;;;;;;;20.19;66.02;94582.88;5069929;28;20212;-61
2022/07/16 01:05:19;;;;;;;2.72;1.58;;;;;;;20.05;66.77;94563.09;5069798;28;20223;-61
2022/07/16 01:07:45;;;;;;;4.68;1.60;;;;;;;20.00;67.44;94560.28;5069726;28;20308;-61
2022/07/16 01:10:12;;;;;;;3.00;1.60;;;;;;;20.01;67.71;94559.31;5069788;28;20632;-61
2022/07/16 01:12:38;;;;;;;5.65;1.92;;;;;;;19.96;67.66;94561.63;5069211;28;20235;-61
2022/07/16 01:15:05;;;;;;;1.60;1.50;;;;;;;20.02;67.44;94571.22;5067850;28;20212;-60
2022/07/16 01:17:31;;;;;;;8.55;2.40;;;;;;;19.99;67.87;94567.25;5051647;28;20216;-60
2022/07/16 01:19:57;;;;;;;2.70;1.77;;;;;;;19.95;68.26;94562.66;5069514;28;22059;-61
2022/07/16 01:22:25;;;;;;;2.15;1.75;;;;;;;19.96;68.14;94565.03;5069688;28;20185;-61
2022/07/16 01:24:51;;;;;;;3.00;1.40;;;;;;;20.02;68.99;94556.53;5069717;28;20236;-62
2022/07/16 01:27:19;;;;;;;1.50;1.33;;;;;;;20.18;68.51;94559.81;5069566;28;20303;-61
2022/07/16 01:29:45;;;;;;;1.80;1.70;;;;;;;20.11;68.51;94564.94;5051398;28;20200;-60
2022/07/16 01:32:11;;;;;;;2.35;1.80;;;;;;;20.15;67.92;94570.50;5069634;28;20208;-62
2022/07/16 01:34:37;;;;;;;1.70;1.60;;;;;;;20.09;68.64;94562.53;5069731;28;20192;-62
2022/07/16 01:37:06;;;;;;;2.08;1.88;;;;;;;20.12;68.32;94576.06;5069558;28;20212;-61
2022/07/16 01:39:33;;;;;;;1.50;1.40;;;;;;;20.10;68.16;94576.22;5069475;28;20180;-61
2022/07/16 01:42:01;;;;;;;4.20;1.77;;;;;;;19.96;68.63;94566.81;5069193;28;20212;-61
2022/07/16 01:44:28;;;;;;;2.05;1.75;;;;;;;19.88;69.40;94557.44;5069692;28;20184;-61
2022/07/16 01:46:55;;;;;;;3.63;1.75;;;;;;;19.90;69.31;94568.38;5069783;28;20205;-60
2022/07/16 01:49:22;;;;;;;1.77;1.40;;;;;;;19.74;70.22;94550.59;5069609;28;20200;-61
2022/07/16 01:51:48;;;;;;;1.50;1.40;;;;;;;19.62;71.00;94553.88;5069596;28;20224;-60
2022/07/16 01:54:13;;;;;;;1.98;1.80;;;;;;;19.52;71.46;94549.03;5069330;28;20613;-61
2022/07/16 01:56:39;;;;;;;2.22;1.45;;;;;;;19.50;71.52;94552.78;5069400;28;20227;-61
2022/07/16 01:59:05;;;;;;;3.10;1.75;;;;;;;19.48;71.96;94563.28;5069884;28;20185;-62
2022/07/16 02:01:31;;;;;;;1.83;1.67;;;;;;;19.56;72.07;94565.72;5072639;28;20208;-62
2022/07/16 02:03:57;;;;;;;2.92;1.88;;;;;;;19.62;72.52;94559.03;5072603;28;20192;-61
2022/07/16 02:06:23;;;;;;;3.85;2.03;;;;;;;19.52;71.99;94564.50;5072007;28;20243;-61
2022/07/16 02:08:49;;;;;;;3.95;1.60;;;;;;;19.44;72.86;94567.22;5072752;28;20623;-62
2022/07/16 02:11:14;;;;;;;1.85;1.70;;;;;;;19.48;73.34;94576.19;5072916;28;20213;-62
2022/07/16 02:13:40;;;;;;;1.92;1.50;;;;;;;19.58;72.75;94578.44;5054527;28;20184;-60
2022/07/16 02:16:06;;;;;;;2.60;1.50;;;;;;;19.72;72.41;94591.25;5072897;28;20251;-62
2022/07/16 02:18:31;;;;;;;2.28;1.92;;;;;;;19.75;71.97;94596.06;5072518;28;20273;-61
2022/07/16 02:20:58;;;;;;;2.38;1.63;;;;;;;19.82;71.57;94606.41;5072500;28;20205;-61
2022/07/16 02:23:24;;;;;;;2.80;1.80;;;;;;;19.91;71.91;94603.53;5072455;28;20199;-61
2022/07/16 02:25:49;;;;;;;3.10;1.60;;;;;;;19.79;72.53;94597.28;5054149;28;20295;-61
2022/07/16 02:28:15;;;;;;;3.65;2.05;;;;;;;19.57;74.11;94585.41;5071324;28;20285;-62
2022/07/16 02:30:44;;;;;;;2.13;1.92;;;;;;;19.55;74.17;94587.38;5072767;28;20200;-61
2022/07/16 02:33:12;;;;;;;2.38;1.90;;;;;;;19.45;74.27;94586.06;5054240;28;20193;-61
2022/07/16 02:35:38;;;;;;;2.00;1.90;;;;;;;19.77;73.35;94604.41;5072478;28;20270;-61
2022/07/16 02:38:05;;;;;;;3.22;2.10;;;;;;;19.89;73.07;94605.50;5072260;28;20189;-61
2022/07/16 02:40:33;;;;;;;2.30;2.10;;;;;;;19.99;72.96;94608.53;5072146;28;20208;-61
2022/07/16 02:42:59;;;;;;;4.93;2.08;;;;;;;19.87;74.83;94584.25;5072389;28;20682;-61
2022/07/16 02:45:24;;;;;;;2.63;2.00;;;;;;;19.66;75.68;94586.84;5072127;28;20684;-61
2022/07/16 02:47:50;;;;;;;6.35;2.50;;;;;;;19.76;75.29;94591.66;5072229;28;20339;-61
2022/07/16 02:50:16;;;;;;;3.83;2.55;;;;;;;20.03;74.41;94604.59;5072143;28;20192;-60
2022/07/16 02:52:41;;;;;;;4.85;2.53;;;;;;;19.91;75.65;94585.47;5072124;28;20268;-61
2022/07/16 02:55:07;;;;;;;4.10;2.42;;;;;;;19.87;76.28;94594.56;5053962;28;20216;-61
2022/07/16 02:57:33;;;;;;;6.13;3.40;;;;;;;19.84;77.75;94588.94;5054142;28;20181;-61
2022/07/16 02:59:59;;;;;;;4.80;2.95;;;;;;;19.73;79.00;94589.47;5053846;28;20199;-61
2022/07/16 03:02:24;;;;;;;5.63;2.83;;;;;;;19.84;78.36;94599.28;5053879;28;20223;-62
2022/07/16 03:04:50;;;;;;;4.80;2.40;;;;;;;19.93;78.04;94609.28;5071907;28;20628;-61
2022/07/16 03:07:16;;;;;;;3.88;2.80;;;;;;;20.09;77.71;94611.59;5071677;28;20224;-61
2022/07/16 03:09:41;;;;;;;3.55;2.53;;;;;;;20.04;77.93;94613.91;5071425;28;20184;-61
2022/07/16 03:12:07;;;;;;;3.45;2.72;;;;;;;20.00;79.09;94604.16;5072224;28;20280;-61
2022/07/16 03:14:33;;;;;;;4.18;2.85;;;;;;;19.91;79.43;94600.13;5071741;28;20232;-61
2022/07/16 03:16:58;;;;;;;4.93;2.90;;;;;;;19.79;80.01;94596.47;5071462;28;20292;-61
2022/07/16 03:19:23;;;;;;;5.32;2.83;;;;;;;19.72;81.18;94599.00;5077163;22;20617;-61
2022/07/16 03:21:49;;;;;;;4.22;3.10;;;;;;;19.72;81.28;94601.56;5066979;28;20259;-61
2022/07/16 03:24:16;;;;;;;6.55;2.97;;;;;;;19.97;80.28;94630.34;5071460;28;20290;-61
2022/07/16 03:26:41;;;;;;;3.60;2.78;;;;;;;20.19;79.48;94644.00;5053194;28;20216;-61
2022/07/16 03:29:07;;;;;;;8.00;3.08;;;;;;;20.09;80.13;94626.28;5071231;28;20201;-61
2022/07/16 03:31:32;;;;;;;6.47;3.38;;;;;;;19.88;80.75;94627.09;5071234;28;20254;-62
2022/07/16 03:33:58;;;;;;;8.40;3.60;;;;;;;19.73;80.63;94628.97;5071257;28;20201;-61
2022/07/16 03:36:23;;;;;;;3.20;2.50;;;;;;;19.48;79.54;94643.22;5071144;28;20219;-61
2022/07/16 03:39:04;;;;;;;7.47;2.92;;;;;;;19.28;81.25;94619.81;5071361;28;20260;-61
2022/07/16 03:41:31;;;;;;;5.70;3.15;;;;;;;19.34;81.92;94618.31;5071204;28;20718;-61
2022/07/16 03:43:59;;;;;;;7.45;3.00;;;;;;;19.39;81.97;94626.28;5071297;28;21738;-62
2022/07/16 03:46:24;;;;;;;4.30;2.70;;;;;;;19.60;80.69;94644.34;5070980;28;20208;-62
2022/07/16 03:48:50;;;;;;;3.72;2.75;;;;;;;19.60;77.12;94689.94;5052919;28;20675;-61
2022/07/16 03:51:16;;;;;;;4.68;2.72;;;;;;;19.84;77.69;94680.06;5070992;28;20220;-61
2022/07/16 03:53:43;;;;;;;5.57;3.95;;;;;;;19.67;77.88;94663.25;5071081;28;20196;-61
2022/07/16 03:56:08;;;;;;;5.18;2.53;;;;;;;19.47;80.71;94639.06;5071170;28;20684;-61
2022/07/16 03:58:35;;;;;;;5.40;3.80;;;;;;;19.46;81.72;94631.50;5070988;28;20185;-60
2022/07/16 04:01:00;;;;;;;5.07;3.35;;;;;;;19.34;83.49;94627.81;5070813;28;20212;-60
2022/07/16 04:03:26;;;;;;;12.40;3.00;;;;;;;19.44;83.52;94616.22;5070995;28;20176;-61
2022/07/16 04:05:52;;;;;;;6.30;4.38;;;;;;;19.34;84.07;94626.03;5071055;28;20557;-61
2022/07/16 04:08:17;;;;;;;15.27;10.75;;;;;;;19.30;84.22;94629.94;5070747;28;20267;-61
2022/07/16 04:10:50;;;;;;;9.57;5.25;;;;;;;19.36;84.39;94634.38;5070822;28;20262;-60
2022/07/16 04:13:16;;;;;;;5.05;3.63;;;;;;;19.57;83.92;94631.81;5052633;28;20364;-61
2022/07/16 04:15:42;;;;;;;8.82;3.83;;;;;;;19.67;82.65;94645.22;5071110;28;20284;-61
2022/07/16 04:18:07;;;;;;;5.80;3.65;;;;;;;19.72;82.00;94653.16;5070773;28;20223;-61
2022/07/16 04:20:33;;;;;;;5.63;3.40;;;;;;;19.72;82.30;94653.16;5070904;28;20257;-62
2022/07/16 04:22:58;;;;;;;6.80;3.60;;;;;;;19.86;82.36;94649.72;5051804;28;20606;-61
2022/07/16 04:25:24;;;;;;;5.90;3.28;;;;;;;20.29;80.31;94680.66;5070952;28;20285;-61
2022/07/16 04:27:50;;;;;;;5.35;2.95;;;;;;;20.31;79.82;94679.47;5070579;28;20591;-62
2022/07/16 04:30:16;;;;;;;4.10;2.88;;;;;;;20.21;79.50;94685.94;5052479;28;20582;-61
2022/07/16 04:32:42;;;;;;;4.60;2.92;;;;;;;20.13;78.95;94688.63;5070500;28;20697;-61
2022/07/16 04:35:10;;;;;;;4.18;2.85;;;;;;;19.95;79.33;94689.09;5070268;28;20253;-61
2022/07/16 04:37:36;;;;;;;6.10;3.15;;;;;;;19.92;78.95;94692.03;5070431;28;20192;-61
2022/07/16 04:40:04;;;;;;;4.78;2.60;;;;;;;19.93;77.41;94722.84;5052452;28;20192;-61
2022/07/16 04:42:29;;;;;;;5.18;3.10;;;;;;;19.97;76.71;94729.22;5052151;28;20269;-62
2022/07/16 04:44:55;;;;;;;4.78;2.85;;;;;;;19.95;75.30;94757.00;5070432;28;20648;-61
2022/07/16 04:47:20;;;;;;;5.03;2.90;;;;;;;19.80;75.98;94737.38;5070108;28;20270;-60
2022/07/16 04:49:46;;;;;;;6.53;5.10;;;;;;;19.81;76.14;94732.06;5070398;28;20247;-60
2022/07/16 04:52:11;;;;;;;6.15;2.70;;;;;;;19.81;76.98;94720.94;5070045;28;20196;-61
2022/07/16 04:54:37;;;;;;;6.57;2.65;;;;;;;19.69;77.76;94714.66;5035608;28;20192;-61
2022/07/16 04:57:02;;;;;;;4.03;2.60;;;;;;;19.60;79.18;94690.75;5070041;28;20247;-61
2022/07/16 04:59:28;;;;;;;3.88;3.50;;;;;;;19.68;78.15;94715.63;5070248;28;20188;-60
2022/07/16 05:02:56;;;;;;;7.63;3.25;;;;;;;19.74;78.84;94691.69;5070034;28;20213;-61
2022/07/16 05:04:39;;;;;;;4.25;3.85;;;;;;;19.78;77.34;94721.28;5070181;28;20197;-62
2022/07/16 05:07:05;;;;;;;5.95;2.95;;;;;;;19.66;78.72;94697.75;5069819;28;20733;-62
2022/07/16 05:09:30;;;;;;;4.28;2.80;;;;;;;19.60;79.80;94677.88;5070094;28;20189;-61
2022/07/16 05:11:56;;;;;;;6.90;2.65;;;;;;;19.74;79.61;94677.00;5077504;22;20733;-61
2022/07/16 05:14:21;;;;;;;4.35;3.30;;;;;;;19.98;78.32;94707.59;5069771;28;20721;-61
2022/07/16 05:16:47;;;;;;;4.10;2.50;;;;;;;19.98;83.84;94632.75;5069695;28;20243;-61
2022/07/16 05:19:12;;;;;;;3.63;2.47;;;;;;;20.14;81.44;94656.69;5069911;28;20222;-61
2022/07/16 05:21:37;;;;;;;6.20;2.55;;;;;;;20.33;88.80;94659.44;5070119;28;20718;-61
2022/07/16 05:24:03;;;;;;;5.43;2.72;;;;;;;20.44;81.98;94683.94;5069729;28;20180;-61
2022/07/16 05:26:28;;;;;;;6.45;2.30;;;;;;;20.61;76.49;94753.19;5070041;28;20766;-61
2022/07/16 05:28:54;;;;;;;5.00;2.70;;;;;;;20.60;75.26;94766.31;5077517;22;20282;-61
2022/07/16 05:31:19;;;;;;;6.38;2.85;;;;;;;20.65;74.74;94774.28;5069497;28;20585;-62
2022/07/16 05:33:45;;;;;;;5.95;3.00;;;;;;;20.60;75.51;94751.63;5071093;28;20593;-61
2022/07/16 05:36:10;;;;;;;4.22;3.03;;;;;;;20.43;75.42;94749.47;5073140;28;20287;-61
2022/07/16 05:38:36;;;;;;;4.05;2.88;;;;;;;20.35;80.05;94690.22;5073400;28;20647;-61
2022/07/16 05:41:01;;;;;;;4.88;3.20;;;;;;;20.56;75.54;94763.28;5073167;28;20621;-61
2022/07/16 05:43:26;;;;;;;5.07;2.65;;;;;;;20.64;75.95;94746.88;5073032;28;20236;-61
2022/07/16 05:45:52;;;;;;;8.13;3.40;;;;;;;20.72;74.91;94770.78;5080374;22;20220;-61
2022/07/16 05:48:17;;;;;;;3.97;3.15;;;;;;;20.72;75.56;94751.88;5073065;28;20654;-59
2022/07/16 05:50:43;;;;;;;3.90;3.00;;;;;;;20.75;75.38;94770.38;5072819;28;20200;-61
2022/07/16 05:53:08;;;;;;;4.20;2.47;;;;;;;20.73;78.36;94705.19;5072861;28;20715;-61
2022/07/16 05:55:34;;;;;;;6.13;3.15;;;;;;;20.83;76.42;94746.19;5072601;28;20212;-61
2022/07/16 05:57:59;;;;;;;6.03;2.95;;;;;;;21.06;83.78;94658.03;5072830;28;20195;-61
2022/07/16 06:00:25;;;;;;;7.50;3.08;;;;;;;21.40;86.00;94678.63;5072552;28;20702;-61
2022/07/16 06:02:57;;;;;;;9.63;3.03;;;;;;;21.64;84.62;94676.31;5072487;28;20196;-60
2022/07/16 06:05:23;;;;;;;3.70;2.70;;;;;;;21.90;81.43;94698.09;5072687;28;20285;-62
2022/07/16 06:07:49;;;;;;;3.47;2.97;;;;;;;22.15;72.57;94842.34;5054504;28;20301;-62
2022/07/16 06:10:15;;;;;;;5.88;2.78;;;;;;;22.23;78.53;94719.59;5072648;28;20284;-63
2022/07/16 06:12:40;;;;;;;4.32;2.92;;;;;;;22.52;83.33;94683.69;5054282;28;20231;-63
2022/07/16 06:15:10;;;;;;;7.28;2.65;;;;;;;22.87;81.64;94702.41;5072353;28;20215;-62
2022/07/16 06:17:36;;;;;;;6.43;4.40;;;;;;;23.12;73.98;94814.88;5072530;28;20185;-62
2022/07/16 06:20:01;;;;;;;6.65;2.92;;;;;;;23.11;67.79;94911.84;5072598;28;20275;-61
2022/07/16 06:22:26;;;;;;;6.25;3.35;;;;;;;22.94;66.71;94905.47;5072500;28;20215;-61
2022/07/16 06:24:52;;;;;;;4.88;3.08;;;;;;;22.72;67.18;94888.53;5072727;28;20272;-61
2022/07/16 06:27:17;;;;;;;12.02;3.50;;;;;;;22.75;67.38;94876.94;5072285;28;20212;-60
2022/07/16 06:29:43;;;;;;;7.72;3.30;;;;;;;22.69;68.05;94850.00;5072275;28;20229;-62
2022/07/16 06:32:08;;;;;;;6.93;3.80;;;;;;;22.69;68.65;94837.06;5072310;28;20200;-62
2022/07/16 06:34:34;;;;;;;5.68;2.95;;;;;;;22.56;69.62;94817.06;5072400;28;20601;-61
2022/07/16 06:36:59;;;;;;;5.13;3.42;;;;;;;22.87;67.89;94858.00;5072276;28;20224;-61
2022/07/16 06:39:25;;;;;;;10.20;3.35;;;;;;;22.69;68.50;94834.47;5072283;28;20181;-61
2022/07/16 06:41:50;;;;;;;6.80;3.67;;;;;;;22.41;70.20;94789.75;5072684;28;20231;-60
2022/07/16 06:44:15;;;;;;;7.25;3.65;;;;;;;22.54;70.43;94790.56;5071881;28;20520;-60
2022/07/16 06:46:41;;;;;;;5.47;3.55;;;;;;;22.61;70.37;94810.53;5071853;28;20295;-60
2022/07/16 06:49:07;;;;;;;6.25;2.97;;;;;;;22.64;69.26;94823.09;5072118;28;20212;-62
2022/07/16 06:51:32;;;;;;;5.57;3.92;;;;;;;22.59;69.26;94826.28;5072277;28;20204;-61
2022/07/16 06:53:58;;;;;;;11.82;7.55;;;;;;;22.64;70.39;94800.56;5053981;28;20191;-60
2022/07/16 06:56:23;;;;;;;6.55;4.03;;;;;;;22.72;69.86;94815.13;5072095;28;20205;-61
2022/07/16 06:58:49;;;;;;;4.38;3.20;;;;;;;22.74;70.96;94777.63;5072030;28;20293;-61
2022/07/16 07:01:14;;;;;;;10.65;4.50;;;;;;;22.79;71.05;94793.38;5071714;28;20632;-61
2022/07/16 07:03:41;;;;;;;8.52;4.32;;;;;;;22.84;70.24;94811.72;5053692;28;20192;-61
2022/07/16 07:06:07;;;;;;;10.27;3.60;;;;;;;22.96;69.86;94812.72;5072343;28;20201;-61
2022/07/16 07:08:33;;;;;;;4.63;3.45;;;;;;;23.09;69.60;94822.25;5071819;28;20227;-62
2022/07/16 07:11:02;;;;;;;9.05;4.00;;;;;;;23.35;67.19;94867.16;5053630;28;20636;-61
2022/07/16 07:13:30;;;;;;;5.63;3.55;;;;;;;23.27;67.81;94853.59;5071877;28;20253;-61
2022/07/16 07:15:57;;;;;;;6.90;3.33;;;;;;;23.22;66.80;94877.53;5071910;28;20213;-61
2022/07/16 07:18:23;;;;;;;5.40;3.60;;;;;;;23.27;68.57;94832.81;5053609;28;20262;-61
2022/07/16 07:20:49;;;;;;;6.45;3.47;;;;;;;23.40;68.50;94825.03;5071503;28;20209;-61
2022/07/16 07:23:15;;;;;;;8.10;3.60;;;;;;;23.40;66.50;94866.56;5071697;28;20207;-61
2022/07/16 07:25:41;;;;;;;5.90;3.65;;;;;;;23.51;66.93;94862.53;5071388;28;20289;-62
2022/07/16 07:28:06;;;;;;;7.28;4.18;;;;;;;23.58;66.73;94865.91;5071567;28;20609;-59
2022/07/16 07:30:32;;;;;;;6.45;3.40;;;;;;;23.71;66.89;94860.69;5071729;28;20266;-60
2022/07/16 07:33:00;;;;;;;7.07;3.40;;;;;;;23.73;66.50;94863.88;5053490;28;20675;-61
2022/07/16 07:35:26;;;;;;;5.55;3.80;;;;;;;23.84;67.24;94850.22;5053315;28;20208;-61
2022/07/16 07:37:52;;;;;;;13.43;8.30;;;;;;;23.97;65.83;94883.97;5071428;28;20208;-61
2022/07/16 07:40:18;;;;;;;6.32;3.78;;;;;;;23.99;65.31;94889.75;5071520;28;20216;-63
2022/07/16 07:42:43;;;;;;;6.90;3.75;;;;;;;24.11;65.68;94885.53;5053469;28;20181;-61
2022/07/16 07:45:09;;;;;;;8.77;3.15;;;;;;;24.26;65.82;94880.84;5071068;28;20201;-62
2022/07/16 07:47:35;;;;;;;6.20;3.85;;;;;;;24.31;66.01;94883.63;5071144;28;20213;-61
2022/07/16 07:50:04;;;;;;;5.10;3.03;;;;;;;24.38;63.66;94930.38;5071294;28;20192;-60
2022/07/16 07:52:30;;;;;;;14.65;3.25;;;;;;;24.37;63.22;94939.97;5071103;28;20263;-60
2022/07/16 07:54:55;;;;;;;5.38;3.55;;;;;;;24.47;63.91;94927.34;5053168;28;20275;-62
2022/07/16 07:57:21;;;;;;;4.60;2.92;;;;;;;24.60;64.02;94916.06;5069692;28;20595;-61
2022/07/16 07:59:47;;;;;;;9.20;4.75;;;;;;;24.62;63.00;94929.66;5052932;28;20305;-61
2022/07/16 08:02:12;;;;;;;13.73;8.25;;;;;;;24.68;62.07;94950.44;5071022;28;20360;-61
2022/07/16 08:04:38;;;;;;;8.02;3.58;;;;;;;24.83;63.25;94924.94;5070870;28;20188;-62
2022/07/16 08:07:04;;;;;;;5.40;3.85;;;;;;;24.82;61.00;94970.19;5052702;28;20224;-60
2022/07/16 08:09:29;;;;;;;8.95;4.00;;;;;;;24.88;61.62;94950.34;5070815;28;20181;-61
2022/07/16 08:11:55;;;;;;;3.42;3.05;;;;;;;24.97;60.26;94975.88;5071323;28;20579;-61
2022/07/16 08:14:21;;;;;;;4.72;3.08;;;;;;;25.04;59.56;94983.66;5071148;28;20661;-61
2022/07/16 08:16:46;;;;;;;7.57;3.00;;;;;;;25.19;60.85;94952.91;5071239;28;20634;-63
2022/07/16 08:19:12;;;;;;;7.40;3.20;;;;;;;25.29;60.11;94971.44;5070809;28;20192;-60
2022/07/16 08:21:37;;;;;;;9.35;3.63;;;;;;;25.42;60.23;94973.97;5071049;28;20201;-61
2022/07/16 08:26:48;;;;;;;9.20;3.53;;;;;;;25.52;58.37;94999.53;5071260;28;20274;-60
2022/07/16 08:29:14;;;;;;;4.47;3.00;;;;;;;25.58;58.50;94996.06;5052616;28;20612;-62
2022/07/16 08:31:39;;;;;;;7.10;3.25;;;;;;;25.65;58.38;94997.59;5070864;28;20209;-60
2022/07/16 08:34:05;;;;;;;6.65;3.60;;;;;;;25.82;59.60;94953.56;5070605;28;20177;-61
2022/07/16 08:36:32;;;;;;;5.30;2.97;;;;;;;25.92;57.65;94992.97;5070504;28;20220;-62
2022/07/16 08:38:57;;;;;;;6.72;2.70;;;;;;;26.18;57.59;94990.09;5070780;28;20183;-62
2022/07/16 08:41:25;;;;;;;3.13;2.80;;;;;;;26.27;58.29;94956.72;5070797;28;20201;-63
2022/07/16 08:43:51;;;;;;;7.55;3.03;;;;;;;26.30;56.83;95001.41;5070568;28;20225;-60
2022/07/16 08:46:20;;;;;;;6.68;3.58;;;;;;;26.24;54.88;95038.78;5070384;28;20300;-61
2022/07/16 08:48:48;;;;;;;6.07;3.70;;;;;;;26.30;54.65;95037.91;5052283;28;20285;-60
2022/07/16 08:51:17;;;;;;;3.75;2.70;;;;;;;26.32;54.58;95037.72;5070220;28;20306;-62
2022/07/16 08:53:44;;;;;;;5.43;2.63;;;;;;;26.36;54.57;95025.84;5070492;28;20176;-60
2022/07/16 08:56:09;;;;;;;6.13;2.95;;;;;;;26.45;55.28;94999.22;5070440;28;20768;-62
2022/07/16 08:58:36;;;;;;;4.90;3.10;;;;;;;26.55;54.70;95023.00;5070120;28;20181;-63
2022/07/16 09:01:02;;;;;;;3.95;3.00;;;;;;;26.63;54.51;95033.13;5070348;28;20269;-61
2022/07/16 09:03:27;;;;;;;4.55;2.83;;;;;;;26.76;54.69;95011.31;5070034;28;20652;-61
2022/07/16 09:05:53;;;;;;;8.55;2.92;;;;;;;26.89;54.83;94997.28;5070155;28;20212;-62
2022/07/16 09:08:19;;;;;;;4.75;2.80;;;;;;;27.10;54.56;95004.63;5069506;28;20238;-60
2022/07/16 09:10:46;;;;;;;5.90;2.88;;;;;;;27.40;55.66;94977.47;5069828;28;20207;-61
2022/07/16 09:13:12;;;;;;;7.75;3.33;;;;;;;27.45;54.61;95010.78;5070089;28;20185;-61
2022/07/16 09:15:39;;;;;;;5.40;3.20;;;;;;;27.55;55.23;94994.53;5069769;28;20270;-63
2022/07/16 09:18:13;;;;;;;5.07;2.70;;;;;;;27.68;52.89;95034.31;5069899;28;20189;-62
2022/07/16 09:20:50;;;;;;;8.43;3.03;;;;;;;27.95;53.68;94990.22;5050117;28;20237;-61
2022/07/16 09:23:21;;;;;;;5.38;3.00;;;;;;;27.92;50.04;95017.63;5049858;28;20680;-61
2022/07/16 09:25:53;;;;;;;4.45;2.63;;;;;;;27.86;49.57;94997.59;5050050;28;20221;-62
2022/07/16 09:28:19;;;;;;;5.50;2.95;;;;;;;27.98;49.42;94993.19;5049666;28;20237;-61
2022/07/16 09:30:45;;;;;;;11.18;3.38;;;;;;;27.83;48.54;94981.59;5049902;28;20336;-60
2022/07/16 09:33:17;;;;;;;8.50;2.92;;;;;;;27.86;47.78;94986.34;5049783;28;20219;-61
2022/07/16 09:35:43;;;;;;;7.72;3.25;;;;;;;28.06;49.14;94961.47;5049987;28;20216;-62
2022/07/16 09:38:09;;;;;;;4.90;3.83;;;;;;;28.11;48.03;94982.50;5049652;28;20668;-62
2022/07/16 09:40:47;;;;;;;8.02;2.70;;;;;;;28.01;48.64;94958.78;5031761;28;20412;-61
2022/07/16 09:43:15;;;;;;;7.10;3.08;;;;;;;28.06;47.70;94974.53;5049692;28;20192;-61
2022/07/16 09:45:55;;;;;;;7.47;2.90;;;;;;;28.02;48.23;94952.50;5031598;28;20367;-61
2022/07/16 09:48:48;;;;;;;6.55;3.83;;;;;;;28.41;49.81;94908.28;5031569;28;20212;-62
2022/07/16 09:51:14;;;;;;;3.33;2.75;;;;;;;28.57;47.17;94972.97;5046711;28;20225;-61
2022/07/16 09:53:40;;;;;;;4.38;2.28;;;;;;;28.58;44.88;94993.72;5049672;28;20208;-61
2022/07/16 09:56:08;;;;;;;3.20;2.63;;;;;;;28.65;44.75;94993.53;5049409;28;20822;-61
2022/07/16 09:58:35;;;;;;;2.83;2.63;;;;;;;29.00;47.21;94947.88;5049462;28;20182;-62
2022/07/16 10:01:02;;;;;;;5.78;2.83;;;;;;;28.95;46.01;94966.09;5049406;28;20358;-61
2022/07/16 10:03:29;;;;;;;5.00;2.83;;;;;;;29.26;47.27;94930.78;5031493;28;20288;-62
2022/07/16 10:05:55;;;;;;;5.47;2.92;;;;;;;29.41;44.12;94996.50;5049650;28;20217;-60
2022/07/16 10:08:21;;;;;;;5.10;2.80;;;;;;;29.39;43.87;94992.56;5049273;28;20582;-61
2022/07/16 10:10:48;;;;;;;5.40;2.38;;;;;;;29.54;46.42;94919.41;5049509;28;20209;-60
2022/07/16 10:13:15;;;;;;;2.70;2.50;;;;;;;29.74;45.46;94935.44;5049354;28;20294;-61
2022/07/16 10:15:42;;;;;;;3.13;2.45;;;;;;;29.79;43.57;94986.16;5031130;28;20210;-61
2022/07/16 10:18:34;;;;;;;5.72;3.00;;;;;;;29.96;46.20;94901.41;5049086;28;20270;-61
2022/07/16 10:21:14;;;;;;;3.97;2.60;;;;;;;29.33;45.32;94901.81;5050987;28;20213;-63
2022/07/16 10:23:43;;;;;;;7.30;2.95;;;;;;;29.47;45.54;94901.22;5052558;28;20208;-63
2022/07/16 10:26:20;;;;;;;3.40;2.80;;;;;;;29.17;45.93;94892.91;5052891;28;20319;-63
2022/07/16 10:28:50;;;;;;;6.95;3.15;;;;;;;28.93;45.36;94901.91;5034525;28;20212;-64
2022/07/16 10:34:12;;;;;;;5.88;2.65;;;;;;;29.12;45.47;94898.03;5067284;22;20237;-64
2022/07/16 10:36:52;;;;;;;4.45;2.67;;;;;;;29.34;43.80;94927.75;5083206;22;20217;-63
2022/07/16 10:39:19;;;;;;;7.03;2.85;;;;;;;29.34;43.11;94932.19;5057104;22;20225;-63
2022/07/16 10:42:04;;;;;;;3.25;2.30;;;;;;;29.11;43.92;94911.38;5052106;28;20221;-64
2022/07/16 10:44:47;;;;;;;8.32;2.78;;;;;;;29.04;42.43;94935.09;5052459;28;20166;-63
2022/07/16 10:47:13;;;;;;;5.55;2.75;;;;;;;29.05;43.14;94913.09;5081696;22;20230;-63
2022/07/16 10:49:38;;;;;;;3.20;2.70;;;;;;;29.37;42.83;94924.66;5052447;28;20272;-65
2022/07/16 10:52:09;;;;;;;8.45;3.60;;;;;;;29.34;43.62;94890.28;5052100;28;20763;-64
2022/07/16 10:54:37;;;;;;;4.57;2.67;;;;;;;29.71;47.40;94820.56;5052141;28;20284;-64
2022/07/16 10:59:37;;;;;;;5.13;2.83;;;;;;;30.26;43.68;94893.91;5066816;22;20672;-64
2022/07/16 11:02:13;;;;;;;3.08;2.80;;;;;;;30.32;43.51;94893.72;5051990;28;20223;-64
2022/07/16 11:04:42;;;;;;;2.67;2.42;;;;;;;29.89;42.19;94921.75;5051783;28;20165;-63
2022/07/16 11:07:19;;;;;;;4.68;2.58;;;;;;;30.11;42.80;94909.44;5066827;22;20225;-63
2022/07/16 11:09:47;;;;;;;7.55;2.78;;;;;;;29.99;39.90;94971.72;5051817;28;20185;-63
2022/07/16 11:12:19;;;;;;;3.97;2.70;;;;;;;30.22;42.14;94898.03;5051794;28;20308;-63
2022/07/16 11:14:54;;;;;;;7.93;2.85;;;;;;;30.50;41.12;94922.25;5051846;28;20664;-64
2022/07/16 11:17:24;;;;;;;3.15;2.55;;;;;;;30.85;39.01;94960.44;5052122;28;20208;-64
2022/07/16 11:19:52;;;;;;;6.00;2.28;;;;;;;30.62;40.82;94916.88;5051828;28;20217;-63
2022/07/16 11:22:20;;;;;;;6.68;2.85;;;;;;;30.73;38.89;94947.44;5052039;28;20729;-64
2022/07/16 11:24:55;;;;;;;3.28;2.42;;;;;;;30.74;40.71;94907.03;5051728;28;20663;-63
2022/07/16 11:27:34;;;;;;;3.05;2.40;;;;;;;31.21;41.88;94876.44;5033620;28;20691;-63
2022/07/16 11:30:05;;;;;;;4.53;2.50;;;;;;;31.57;39.44;94927.47;5033709;28;20190;-64
2022/07/16 11:32:31;;;;;;;2.53;2.22;;;;;;;31.71;39.99;94912.03;5033439;28;20263;-63
2022/07/16 11:35:04;;;;;;;2.83;2.00;;;;;;;31.45;39.26;94932.91;5033644;28;20190;-63
2022/07/16 11:37:30;;;;;;;4.10;2.40;;;;;;;31.67;39.07;94926.75;5051459;28;20216;-64
2022/07/16 11:39:59;;;;;;;6.20;2.28;;;;;;;31.89;37.97;94954.50;5051470;28;20625;-62
2022/07/16 11:42:25;;;;;;;5.13;2.35;;;;;;;32.08;39.03;94918.03;5051519;28;20224;-63